createdAt,value
2023-07-30T00:00:24.117Z,90.63
2023-07-30T00:02:28.176Z,90.78
2023-07-30T00:03:28.197Z,90.27
2023-07-30T00:05:32.213Z,90.67
2023-07-30T00:06:32.164Z,90.07
2023-07-30T00:08:36.237Z,90.27
2023-07-30T00:09:36.164Z,89.97
2023-07-30T00:11:41.032Z,89.66
2023-07-30T00:12:40.691Z,89.81
2023-07-30T00:14:44.770Z,90.37
2023-07-30T00:15:44.732Z,90.07
2023-07-30T00:17:38.755Z,90.31
2023-07-30T00:18:37.653Z,89.87
2023-07-30T00:20:41.746Z,90.11
2023-07-30T00:21:41.675Z,90.62
2023-07-30T00:23:45.763Z,89.97
2023-07-30T00:24:45.683Z,89.91
2023-07-30T00:26:49.789Z,90.21
2023-07-30T00:27:49.704Z,90.21
2023-07-30T00:29:53.794Z,90.01
2023-07-30T00:30:53.724Z,90.21
2023-07-30T00:32:57.889Z,89.91
2023-07-30T00:33:57.747Z,90.41
2023-07-30T00:36:01.825Z,90.21
2023-07-30T00:37:01.759Z,91.02
2023-07-30T00:39:05.850Z,90.62
2023-07-30T00:40:05.774Z,90.62
2023-07-30T00:42:09.882Z,90.66
2023-07-30T00:43:09.787Z,90.66
2023-07-30T00:45:14.369Z,90.86
2023-07-30T00:46:14.374Z,90.76
2023-07-30T00:48:18.395Z,91.06
2023-07-30T00:49:18.338Z,91.37
2023-07-30T00:51:22.447Z,91.37
2023-07-30T00:52:22.366Z,91.27
2023-07-30T00:54:26.568Z,91.92
2023-07-30T00:55:26.356Z,91.82
2023-07-30T00:57:19.390Z,91.87
2023-07-30T00:58:19.323Z,91.31
2023-07-30T01:00:23.461Z,91.31
2023-07-30T01:01:23.410Z,91.31
2023-07-30T01:03:27.388Z,90.70
2023-07-30T01:04:27.437Z,90.20
2023-07-30T01:06:31.434Z,90.20
2023-07-30T01:07:31.367Z,90.20
2023-07-30T01:09:35.474Z,90.30
2023-07-30T01:10:35.377Z,89.89
2023-07-30T01:12:39.484Z,90.09
2023-07-30T01:13:39.392Z,89.28
2023-07-30T01:15:43.495Z,89.79
2023-07-30T01:16:43.468Z,89.79
2023-07-30T01:18:47.456Z,89.89
2023-07-30T01:19:47.459Z,89.79
2023-07-30T01:21:51.522Z,89.79
2023-07-30T01:22:51.443Z,89.59
2023-07-30T01:24:55.526Z,90.20
2023-07-30T01:25:55.455Z,90.09
2023-07-30T01:27:59.577Z,90.20
2023-07-30T01:28:59.478Z,89.48
2023-07-30T01:31:03.592Z,89.69
2023-07-30T01:32:03.500Z,89.59
2023-07-30T01:34:07.569Z,89.83
2023-07-30T01:35:07.508Z,89.59
2023-07-30T01:37:00.554Z,90.14
2023-07-30T01:38:00.465Z,89.83
2023-07-30T01:40:04.540Z,90.24
2023-07-30T01:41:04.471Z,90.14
2023-07-30T01:43:08.590Z,90.34
2023-07-30T01:44:08.496Z,90.64
2023-07-30T01:46:12.587Z,90.54
2023-07-30T01:47:12.497Z,90.54
2023-07-30T01:49:16.592Z,90.34
2023-07-30T01:50:16.528Z,90.54
2023-07-30T01:52:20.615Z,89.94
2023-07-30T01:53:20.540Z,90.34
2023-07-30T01:55:24.580Z,90.44
2023-07-30T01:56:24.593Z,90.34
2023-07-30T01:58:28.666Z,90.14
2023-07-30T01:59:28.573Z,90.24
2023-07-30T02:01:32.691Z,90.24
2023-07-30T02:02:32.641Z,90.24
2023-07-30T02:04:36.691Z,90.28
2023-07-30T02:05:36.599Z,90.64
2023-07-30T02:07:29.618Z,90.75
2023-07-30T02:08:29.558Z,90.64
2023-07-30T02:10:33.639Z,90.64
2023-07-30T02:11:33.592Z,90.24
2023-07-30T02:13:37.671Z,90.58
2023-07-30T02:14:37.595Z,90.34
2023-07-30T02:16:41.690Z,90.34
2023-07-30T02:17:41.637Z,90.24
2023-07-30T02:19:45.697Z,90.24
2023-07-30T02:20:45.611Z,90.24
2023-07-30T02:22:49.720Z,90.28
2023-07-30T02:23:49.638Z,90.64
2023-07-30T02:25:53.733Z,90.34
2023-07-30T02:26:53.642Z,90.34
2023-07-30T02:28:57.740Z,90.24
2023-07-30T02:29:57.661Z,90.28
2023-07-30T02:32:01.817Z,91.19
2023-07-30T02:33:01.711Z,90.99
2023-07-30T02:35:05.779Z,90.69
2023-07-30T02:36:05.687Z,90.89
2023-07-30T02:38:09.787Z,90.99
2023-07-30T02:39:09.716Z,90.99
2023-07-30T02:41:13.778Z,90.58
2023-07-30T02:42:13.765Z,90.99
2023-07-30T02:44:17.830Z,91.39
2023-07-30T02:45:17.745Z,91.85
2023-07-30T02:47:10.774Z,91.85
2023-07-30T02:48:10.725Z,91.39
2023-07-30T02:50:14.789Z,91.60
2023-07-30T02:51:14.712Z,91.70
2023-07-30T02:53:18.806Z,91.64
2023-07-30T02:54:18.733Z,91.85
2023-07-30T02:56:22.817Z,91.70
2023-07-30T02:57:22.746Z,91.39
2023-07-30T02:59:26.860Z,91.80
2023-07-30T03:00:26.768Z,91.60
2023-07-30T03:02:30.958Z,91.44
2023-07-30T03:03:30.786Z,90.89
2023-07-30T03:05:34.864Z,90.48
2023-07-30T03:06:34.788Z,90.58
2023-07-30T03:08:38.876Z,90.79
2023-07-30T03:09:38.821Z,90.69
2023-07-30T03:11:42.899Z,91.09
2023-07-30T03:12:42.821Z,91.30
2023-07-30T03:14:46.908Z,91.50
2023-07-30T03:15:46.832Z,92.00
2023-07-30T03:17:50.978Z,91.64
2023-07-30T03:18:50.875Z,91.64
2023-07-30T03:20:54.943Z,92.05
2023-07-30T03:21:54.890Z,91.94
2023-07-30T03:23:58.966Z,92.05
2023-07-30T03:24:58.886Z,91.94
2023-07-30T03:26:51.909Z,92.25
2023-07-30T03:27:51.894Z,92.45
2023-07-30T03:29:55.925Z,92.05
2023-07-30T03:30:55.883Z,92.35
2023-07-30T03:32:59.975Z,92.14
2023-07-30T03:33:59.880Z,92.35
2023-07-30T03:36:03.958Z,92.05
2023-07-30T03:37:03.890Z,92.05
2023-07-30T03:39:07.988Z,91.85
2023-07-30T03:40:07.908Z,92.14
2023-07-30T03:42:11.997Z,92.55
2023-07-30T03:43:11.906Z,92.14
2023-07-30T03:45:16.008Z,92.14
2023-07-30T03:46:16.012Z,92.35
2023-07-30T03:48:20.439Z,91.64
2023-07-30T03:49:20.392Z,92.31
2023-07-30T03:51:24.442Z,92.51
2023-07-30T03:52:24.380Z,92.25
2023-07-30T03:54:28.471Z,92.10
2023-07-30T03:55:28.390Z,92.25
2023-07-30T03:57:21.433Z,92.21
2023-07-30T03:58:21.353Z,92.00
2023-07-30T04:00:25.529Z,92.51
2023-07-30T04:01:25.363Z,92.10
2023-07-30T04:03:29.557Z,92.31
2023-07-30T04:04:29.398Z,92.10
2023-07-30T04:06:33.475Z,92.41
2023-07-30T04:07:33.398Z,92.71
2023-07-30T04:09:37.480Z,92.61
2023-07-30T04:10:37.403Z,92.91
2023-07-30T04:12:41.510Z,92.41
2023-07-30T04:13:41.428Z,92.10
2023-07-30T04:15:45.519Z,92.41
2023-07-30T04:16:45.459Z,92.26
2023-07-30T04:18:49.530Z,91.86
2023-07-30T04:19:49.453Z,92.21
2023-07-30T04:21:53.549Z,92.06
2023-07-30T04:22:53.472Z,92.16
2023-07-30T04:24:57.574Z,92.26
2023-07-30T04:25:57.503Z,91.86
2023-07-30T04:28:01.684Z,91.75
2023-07-30T04:29:01.513Z,91.61
2023-07-30T04:31:05.611Z,91.71
2023-07-30T04:32:05.522Z,91.82
2023-07-30T04:34:09.615Z,91.31
2023-07-30T04:35:09.542Z,91.51
2023-07-30T04:37:02.593Z,91.51
2023-07-30T04:38:02.518Z,91.11
2023-07-30T04:40:06.600Z,91.51
2023-07-30T04:41:06.508Z,91.71
2023-07-30T04:43:10.617Z,91.57
2023-07-30T04:44:10.530Z,91.16
2023-07-30T04:46:14.687Z,91.47
2023-07-30T04:47:14.566Z,91.37
2023-07-30T04:49:18.627Z,91.57
2023-07-30T04:50:18.564Z,91.77
2023-07-30T04:52:22.643Z,92.08
2023-07-30T04:53:22.581Z,92.38
2023-07-30T04:55:26.657Z,93.08
2023-07-30T04:56:26.588Z,92.99
2023-07-30T04:58:30.677Z,93.39
2023-07-30T04:59:30.610Z,93.29
2023-07-30T05:01:34.808Z,92.68
2023-07-30T05:02:34.641Z,93.08
2023-07-30T05:04:38.712Z,93.59
2023-07-30T05:05:38.632Z,93.08
2023-07-30T05:07:31.664Z,93.49
2023-07-30T05:08:31.594Z,92.88
2023-07-30T05:10:35.674Z,93.08
2023-07-30T05:11:35.913Z,92.99
2023-07-30T05:13:39.681Z,92.88
2023-07-30T05:14:39.610Z,92.99
2023-07-30T05:16:43.709Z,93.08
2023-07-30T05:17:43.697Z,92.88
2023-07-30T05:19:47.721Z,91.82
2023-07-30T05:20:47.642Z,91.82
2023-07-30T05:22:52.270Z,91.41
2023-07-30T05:23:52.184Z,91.27
2023-07-30T05:25:56.266Z,91.41
2023-07-30T05:26:56.198Z,91.61
2023-07-30T05:29:00.294Z,90.80
2023-07-30T05:30:00.220Z,90.80
2023-07-30T05:32:04.353Z,90.30
2023-07-30T05:33:04.241Z,90.60
2023-07-30T05:35:08.301Z,90.30
2023-07-30T05:36:08.241Z,90.60
2023-07-30T05:38:01.163Z,90.05
2023-07-30T05:39:01.140Z,89.75
2023-07-30T05:41:05.121Z,89.75
2023-07-30T05:42:05.093Z,89.14
2023-07-30T05:44:09.043Z,89.14
2023-07-30T05:45:08.992Z,88.94
2023-07-30T05:47:01.892Z,89.75
2023-07-30T05:48:01.905Z,89.08
2023-07-30T05:50:05.822Z,89.79
2023-07-30T05:51:05.786Z,89.79
2023-07-30T05:53:10.248Z,89.79
2023-07-30T05:54:10.230Z,89.79
2023-07-30T05:56:14.184Z,90.30
2023-07-30T05:57:14.153Z,89.69
2023-07-30T05:59:20.558Z,90.16
2023-07-30T06:00:18.161Z,90.25
2023-07-30T06:02:22.236Z,89.79
2023-07-30T06:03:22.211Z,89.24
2023-07-30T06:05:26.252Z,89.75
2023-07-30T06:06:26.217Z,90.05
2023-07-30T06:08:30.267Z,90.05
2023-07-30T06:09:30.191Z,90.25
2023-07-30T06:11:34.281Z,90.56
2023-07-30T06:12:34.245Z,90.01
2023-07-30T06:14:38.298Z,90.11
2023-07-30T06:15:38.258Z,90.21
2023-07-30T06:17:33.924Z,90.01
2023-07-30T06:18:31.180Z,89.61
2023-07-30T06:20:35.160Z,89.65
2023-07-30T06:21:35.136Z,89.40
2023-07-30T06:22:35.160Z,89.91
2023-07-30T06:23:35.073Z,89.50
2023-07-30T06:24:36.140Z,89.50
2023-07-30T06:25:35.022Z,89.70
2023-07-30T06:26:35.071Z,89.70
2023-07-30T06:27:34.968Z,89.30
2023-07-30T06:28:35.008Z,89.00
2023-07-30T06:29:34.931Z,89.91
2023-07-30T06:30:34.987Z,90.11
2023-07-30T06:31:34.961Z,89.76
2023-07-30T06:32:34.973Z,89.66
2023-07-30T06:33:34.848Z,89.66
2023-07-30T06:34:34.966Z,89.46
2023-07-30T06:35:34.794Z,89.46
2023-07-30T06:36:34.960Z,90.07
2023-07-30T06:37:34.744Z,89.16
2023-07-30T06:38:36.664Z,89.46
2023-07-30T06:39:34.724Z,89.36
2023-07-30T06:40:34.809Z,90.07
2023-07-30T06:41:34.675Z,90.17
2023-07-30T06:42:34.663Z,89.62
2023-07-30T06:43:34.611Z,89.32
2023-07-30T06:44:34.764Z,89.12
2023-07-30T06:45:34.585Z,89.01
2023-07-30T06:46:34.651Z,88.41
2023-07-30T06:47:36.545Z,89.12
2023-07-30T06:48:34.613Z,89.12
2023-07-30T06:49:34.498Z,88.92
2023-07-30T06:50:34.516Z,89.32
2023-07-30T06:51:34.529Z,89.01
2023-07-30T06:52:34.442Z,89.12
2023-07-30T06:53:34.403Z,89.22
2023-07-30T06:54:34.470Z,87.90
2023-07-30T06:55:34.356Z,89.32
2023-07-30T06:56:34.356Z,88.01
2023-07-30T06:57:34.329Z,88.57
2023-07-30T06:58:34.441Z,87.96
2023-07-30T06:59:34.270Z,88.47
2023-07-30T07:00:34.285Z,88.77
2023-07-30T07:01:34.317Z,87.76
2023-07-30T07:02:34.428Z,87.76
2023-07-30T07:03:34.224Z,87.46
2023-07-30T07:04:34.217Z,87.26
2023-07-30T07:05:34.138Z,87.52
2023-07-30T07:06:34.295Z,87.96
2023-07-30T07:07:34.100Z,87.46
2023-07-30T07:08:34.146Z,87.05
2023-07-30T07:09:34.076Z,87.41
2023-07-30T07:10:34.075Z,87.41
2023-07-30T07:11:34.004Z,87.26
2023-07-30T07:12:34.077Z,87.15
2023-07-30T07:13:33.969Z,87.92
2023-07-30T07:14:33.974Z,87.82
2023-07-30T07:15:33.925Z,87.32
2023-07-30T07:16:34.034Z,87.12
2023-07-30T07:17:33.937Z,87.01
2023-07-30T07:18:33.897Z,87.72
2023-07-30T07:19:33.859Z,87.62
2023-07-30T07:20:33.914Z,87.12
2023-07-30T07:21:33.828Z,86.97
2023-07-30T07:22:33.826Z,86.87
2023-07-30T07:23:33.753Z,85.76
2023-07-30T07:24:33.839Z,86.97
2023-07-30T07:25:33.715Z,86.36
2023-07-30T07:26:33.770Z,86.77
2023-07-30T07:27:33.664Z,86.47
2023-07-30T07:28:33.707Z,86.67
2023-07-30T07:29:33.623Z,87.07
2023-07-30T07:30:33.682Z,86.87
2023-07-30T07:31:35.185Z,86.87
2023-07-30T07:32:33.628Z,87.03
2023-07-30T07:33:33.564Z,86.93
2023-07-30T07:34:34.626Z,87.13
2023-07-30T07:35:33.498Z,85.72
2023-07-30T07:36:33.521Z,85.72
2023-07-30T07:37:33.448Z,85.31
2023-07-30T07:38:33.539Z,85.02
2023-07-30T07:39:33.424Z,85.36
2023-07-30T07:40:33.442Z,85.76
2023-07-30T07:41:33.374Z,85.92
2023-07-30T07:42:33.354Z,85.76
2023-07-30T07:43:33.317Z,86.47
2023-07-30T07:44:33.367Z,85.86
2023-07-30T07:45:33.281Z,86.97
2023-07-30T07:46:33.328Z,85.96
2023-07-30T07:47:33.283Z,86.87
2023-07-30T07:48:33.304Z,86.87
2023-07-30T07:49:33.228Z,87.18
2023-07-30T07:50:33.210Z,86.87
2023-07-30T07:51:33.155Z,87.18
2023-07-30T07:52:33.241Z,86.93
2023-07-30T07:53:33.117Z,86.83
2023-07-30T07:54:33.137Z,86.87
2023-07-30T07:55:33.061Z,86.07
2023-07-30T07:56:33.146Z,85.66
2023-07-30T07:57:33.021Z,87.13
2023-07-30T07:58:33.058Z,86.63
2023-07-30T07:59:32.993Z,86.87
2023-07-30T08:00:32.971Z,86.83
2023-07-30T08:01:33.007Z,86.53
2023-07-30T08:02:33.058Z,85.82
2023-07-30T08:03:32.961Z,86.83
2023-07-30T08:04:33.046Z,85.98
2023-07-30T08:05:32.856Z,87.54
2023-07-30T08:06:32.930Z,85.92
2023-07-30T08:07:32.804Z,86.83
2023-07-30T08:08:32.849Z,86.38
2023-07-30T08:09:32.782Z,85.08
2023-07-30T08:10:32.842Z,85.31
2023-07-30T08:11:32.853Z,85.31
2023-07-30T08:12:32.764Z,85.11
2023-07-30T08:13:32.774Z,85.31
2023-07-30T08:14:32.810Z,85.52
2023-07-30T08:15:32.648Z,85.36
2023-07-30T08:16:32.732Z,85.92
2023-07-30T08:17:32.626Z,86.07
2023-07-30T08:18:32.602Z,85.92
2023-07-30T08:19:32.562Z,85.52
2023-07-30T08:20:32.601Z,86.53
2023-07-30T08:21:32.517Z,85.42
2023-07-30T08:22:32.517Z,85.31
2023-07-30T08:23:32.484Z,85.52
2023-07-30T08:24:32.536Z,86.73
2023-07-30T08:25:32.433Z,84.81
2023-07-30T08:26:32.445Z,85.52
2023-07-30T08:27:32.396Z,85.11
2023-07-30T08:28:32.518Z,85.22
2023-07-30T08:29:32.349Z,85.02
2023-07-30T08:30:32.390Z,85.02
2023-07-30T08:31:32.349Z,85.31
2023-07-30T08:32:32.429Z,85.02
2023-07-30T08:33:32.268Z,84.81
2023-07-30T08:34:32.298Z,85.52
2023-07-30T08:35:32.231Z,85.42
2023-07-30T08:36:32.230Z,84.81
2023-07-30T08:37:32.175Z,84.95
2023-07-30T08:38:32.224Z,84.91
2023-07-30T08:39:32.143Z,85.31
2023-07-30T08:40:32.134Z,84.91
2023-07-30T08:41:32.091Z,84.37
2023-07-30T08:42:32.145Z,84.01
2023-07-30T08:43:32.056Z,84.07
2023-07-30T08:44:32.058Z,83.87
2023-07-30T08:45:32.008Z,84.17
2023-07-30T08:46:32.095Z,84.17
2023-07-30T08:47:32.108Z,83.97
2023-07-30T08:48:31.993Z,83.56
2023-07-30T08:49:31.930Z,83.36
2023-07-30T08:50:31.999Z,83.87
2023-07-30T08:51:31.923Z,83.87
2023-07-30T08:52:31.935Z,84.23
2023-07-30T08:53:31.861Z,83.69
2023-07-30T08:54:31.932Z,83.22
2023-07-30T08:55:31.854Z,83.08
2023-07-30T08:56:31.852Z,82.58
2023-07-30T08:57:31.765Z,82.78
2023-07-30T08:58:31.751Z,83.39
2023-07-30T08:59:31.714Z,82.78
2023-07-30T09:00:31.772Z,82.38
2023-07-30T09:01:31.728Z,81.17
2023-07-30T09:02:31.705Z,82.74
2023-07-30T09:03:31.633Z,82.30
2023-07-30T09:04:31.690Z,80.55
2023-07-30T09:05:31.605Z,79.74
2023-07-30T09:06:31.606Z,79.54
2023-07-30T09:07:31.544Z,79.81
2023-07-30T09:08:31.646Z,78.30
2023-07-30T09:09:31.518Z,79.30
2023-07-30T09:10:31.533Z,78.16
2023-07-30T09:11:31.479Z,76.52
2023-07-30T09:12:31.552Z,76.25
2023-07-30T09:13:31.425Z,77.46
2023-07-30T09:14:31.454Z,75.92
2023-07-30T09:15:31.388Z,75.42
2023-07-30T09:16:31.423Z,74.68
2023-07-30T09:17:31.350Z,75.14
2023-07-30T09:18:31.430Z,75.51
2023-07-30T09:19:31.319Z,73.70
2023-07-30T09:20:31.313Z,72.50
2023-07-30T09:21:31.274Z,74.01
2023-07-30T09:22:31.314Z,73.50
2023-07-30T09:23:31.233Z,72.66
2023-07-30T09:24:31.242Z,73.33
2023-07-30T09:25:31.186Z,70.83
2023-07-30T09:26:31.237Z,71.12
2023-07-30T09:27:31.139Z,70.23
2023-07-30T09:28:31.160Z,71.43
2023-07-30T09:29:31.102Z,70.29
2023-07-30T09:30:31.162Z,71.73
2023-07-30T09:31:31.102Z,72.03
2023-07-30T09:32:31.151Z,71.56
2023-07-30T09:33:31.028Z,72.03
2023-07-30T09:34:31.105Z,72.13
2023-07-30T09:35:30.991Z,71.46
2023-07-30T09:36:31.018Z,72.93
2023-07-30T09:37:30.939Z,69.53
2023-07-30T09:38:31.032Z,70.69
2023-07-30T09:39:30.901Z,69.59
2023-07-30T09:40:30.930Z,69.79
2023-07-30T09:41:30.883Z,68.22
2023-07-30T09:42:30.937Z,68.46
2023-07-30T09:43:30.811Z,69.76
2023-07-30T09:44:30.853Z,68.05
2023-07-30T09:45:30.792Z,67.85
2023-07-30T09:46:30.771Z,67.65
2023-07-30T09:47:30.762Z,68.46
2023-07-30T09:48:30.784Z,69.42
2023-07-30T09:49:30.734Z,68.09
2023-07-30T09:50:30.699Z,68.49
2023-07-30T09:51:30.678Z,68.59
2023-07-30T09:52:30.810Z,67.05
2023-07-30T09:53:30.668Z,67.25
2023-07-30T09:54:30.765Z,66.49
2023-07-30T09:55:30.591Z,67.52
2023-07-30T09:56:30.749Z,68.26
2023-07-30T09:57:30.560Z,68.55
2023-07-30T09:58:30.650Z,69.86
2023-07-30T09:59:30.525Z,70.66
2023-07-30T10:00:30.675Z,69.82
2023-07-30T10:01:30.556Z,68.76
2023-07-30T10:02:30.588Z,68.46
2023-07-30T10:03:30.436Z,68.29
2023-07-30T10:04:30.638Z,68.96
2023-07-30T10:05:30.386Z,69.42
2023-07-30T10:06:30.501Z,67.76
2023-07-30T10:07:30.354Z,69.53
2023-07-30T10:08:30.417Z,65.76
2023-07-30T10:09:30.331Z,66.06
2023-07-30T10:10:30.457Z,66.03
2023-07-30T10:11:30.272Z,66.43
2023-07-30T10:12:30.340Z,65.40
2023-07-30T10:13:30.238Z,64.40
2023-07-30T10:14:30.360Z,65.97
2023-07-30T10:15:30.204Z,62.83
2023-07-30T10:16:30.287Z,64.83
2023-07-30T10:17:30.203Z,64.00
2023-07-30T10:18:30.294Z,62.60
2023-07-30T10:19:30.136Z,61.63
2023-07-30T10:20:30.205Z,62.26
2023-07-30T10:21:30.142Z,63.59
2023-07-30T10:22:30.238Z,64.22
2023-07-30T10:23:30.045Z,65.42
2023-07-30T10:24:30.229Z,66.05
2023-07-30T10:25:30.017Z,65.66
2023-07-30T10:26:30.159Z,66.46
2023-07-30T10:27:29.971Z,66.46
2023-07-30T10:28:30.067Z,67.39
2023-07-30T10:29:29.944Z,68.22
2023-07-30T10:30:30.057Z,68.02
2023-07-30T10:31:29.949Z,68.62
2023-07-30T10:32:29.986Z,67.85
2023-07-30T10:33:29.867Z,67.85
2023-07-30T10:34:29.984Z,68.19
2023-07-30T10:35:29.831Z,68.62
2023-07-30T10:36:29.903Z,68.29
2023-07-30T10:37:29.792Z,68.29
2023-07-30T10:38:29.908Z,68.89
2023-07-30T10:39:29.774Z,68.76
2023-07-30T10:40:29.823Z,69.46
2023-07-30T10:41:29.723Z,67.72
2023-07-30T10:42:29.841Z,68.39
2023-07-30T10:43:29.690Z,68.26
2023-07-30T10:44:29.747Z,68.05
2023-07-30T10:45:29.644Z,66.93
2023-07-30T10:46:29.838Z,66.46
2023-07-30T10:47:36.813Z,66.46
2023-07-30T10:48:29.674Z,66.86
2023-07-30T10:49:29.575Z,66.05
2023-07-30T10:50:29.688Z,66.66
2023-07-30T10:51:30.947Z,67.63
2023-07-30T10:52:29.602Z,66.99
2023-07-30T10:53:29.499Z,66.76
2023-07-30T10:54:29.614Z,65.43
2023-07-30T10:55:29.457Z,63.83
2023-07-30T10:56:29.542Z,63.46
2023-07-30T10:57:30.698Z,65.16
2023-07-30T10:58:29.542Z,64.06
2023-07-30T10:59:29.386Z,64.06
2023-07-30T11:00:29.457Z,64.39
2023-07-30T11:01:29.391Z,64.59
2023-07-30T11:02:29.519Z,65.26
2023-07-30T11:03:29.395Z,65.40
2023-07-30T11:04:29.389Z,62.60
2023-07-30T11:05:29.261Z,63.47
2023-07-30T11:06:29.326Z,63.20
2023-07-30T11:07:29.233Z,62.37
2023-07-30T11:08:29.237Z,63.56
2023-07-30T11:09:29.198Z,65.56
2023-07-30T11:10:29.250Z,65.59
2023-07-30T11:11:29.164Z,64.19
2023-07-30T11:12:29.191Z,64.89
2023-07-30T11:13:29.139Z,64.89
2023-07-30T11:14:29.266Z,64.59
2023-07-30T11:15:29.084Z,64.12
2023-07-30T11:16:29.160Z,64.03
2023-07-30T11:17:29.074Z,65.72
2023-07-30T11:18:29.104Z,66.46
2023-07-30T11:19:29.129Z,65.46
2023-07-30T11:20:29.019Z,66.53
2023-07-30T11:21:28.969Z,64.03
2023-07-30T11:22:29.034Z,63.63
2023-07-30T11:23:28.949Z,62.06
2023-07-30T11:24:28.948Z,62.79
2023-07-30T11:25:28.902Z,62.59
2023-07-30T11:26:28.959Z,64.72
2023-07-30T11:27:28.871Z,62.82
2023-07-30T11:28:28.905Z,64.00
2023-07-30T11:29:28.850Z,63.32
2023-07-30T11:30:28.886Z,65.02
2023-07-30T11:31:28.836Z,63.62
2023-07-30T11:32:28.857Z,63.72
2023-07-30T11:33:28.749Z,64.49
2023-07-30T11:34:28.914Z,64.12
2023-07-30T11:35:28.711Z,64.25
2023-07-30T11:36:28.742Z,65.05
2023-07-30T11:37:28.695Z,65.83
2023-07-30T11:38:28.752Z,64.83
2023-07-30T11:39:28.665Z,67.09
2023-07-30T11:40:28.655Z,64.76
2023-07-30T11:41:28.602Z,64.96
2023-07-30T11:42:28.710Z,63.76
2023-07-30T11:43:28.569Z,65.29
2023-07-30T11:44:28.581Z,64.66
2023-07-30T11:45:28.553Z,65.20
2023-07-30T11:46:28.634Z,63.00
2023-07-30T11:47:28.513Z,65.07
2023-07-30T11:48:28.516Z,63.90
2023-07-30T11:49:28.475Z,61.60
2023-07-30T11:50:28.515Z,62.76
2023-07-30T11:51:28.424Z,63.49
2023-07-30T11:52:28.437Z,63.53
2023-07-30T11:53:28.384Z,63.35
2023-07-30T11:54:28.450Z,64.18
2023-07-30T11:55:28.348Z,65.55
2023-07-30T11:56:28.415Z,64.18
2023-07-30T11:57:28.333Z,65.78
2023-07-30T11:58:28.385Z,64.06
2023-07-30T11:59:28.287Z,65.39
2023-07-30T12:00:28.289Z,64.09
2023-07-30T12:01:28.306Z,64.89
2023-07-30T12:02:28.342Z,65.28
2023-07-30T12:03:28.383Z,65.95
2023-07-30T12:04:28.212Z,63.58
2023-07-30T12:05:28.166Z,64.18
2023-07-30T12:06:28.266Z,64.48
2023-07-30T12:07:28.126Z,64.09
2023-07-30T12:08:28.139Z,64.28
2023-07-30T12:09:28.125Z,64.28
2023-07-30T12:10:28.166Z,64.42
2023-07-30T12:11:28.069Z,64.92
2023-07-30T12:12:28.100Z,64.04
2023-07-30T12:13:28.016Z,65.35
2023-07-30T12:14:28.091Z,65.95
2023-07-30T12:15:27.995Z,65.72
2023-07-30T12:16:28.063Z,64.81
2023-07-30T12:17:27.965Z,65.42
2023-07-30T12:18:28.020Z,66.02
2023-07-30T12:19:27.923Z,65.42
2023-07-30T12:20:27.930Z,66.12
2023-07-30T12:21:27.879Z,65.85
2023-07-30T12:22:27.942Z,65.48
2023-07-30T12:23:27.830Z,63.95
2023-07-30T12:24:27.913Z,66.02
2023-07-30T12:25:27.806Z,63.32
2023-07-30T12:26:27.830Z,65.19
2023-07-30T12:27:27.769Z,63.76
2023-07-30T12:28:27.867Z,63.56
2023-07-30T12:29:27.728Z,63.86
2023-07-30T12:30:27.765Z,63.26
2023-07-30T12:31:27.805Z,62.53
2023-07-30T12:32:27.805Z,62.43
2023-07-30T12:33:27.659Z,62.50
2023-07-30T12:34:27.672Z,60.33
2023-07-30T12:35:27.629Z,62.46
2023-07-30T12:36:27.738Z,62.09
2023-07-30T12:37:27.592Z,63.89
2023-07-30T12:38:27.614Z,64.59
2023-07-30T12:39:27.550Z,63.26
2023-07-30T12:40:27.639Z,62.66
2023-07-30T12:41:27.510Z,62.23
2023-07-30T12:42:27.535Z,61.90
2023-07-30T12:43:27.472Z,63.37
2023-07-30T12:44:27.544Z,60.85
2023-07-30T12:45:27.476Z,58.55
2023-07-30T12:46:27.454Z,58.68
2023-07-30T12:47:27.441Z,60.31
2023-07-30T12:48:27.476Z,59.51
2023-07-30T12:49:27.375Z,60.91
2023-07-30T12:50:27.389Z,59.21
2023-07-30T12:51:27.331Z,57.78
2023-07-30T12:52:27.399Z,58.61
2023-07-30T12:53:27.309Z,59.18
2023-07-30T12:54:27.311Z,57.88
2023-07-30T12:55:27.259Z,57.95
2023-07-30T12:56:27.346Z,57.86
2023-07-30T12:57:27.226Z,57.63
2023-07-30T12:58:27.233Z,57.63
2023-07-30T12:59:27.207Z,58.03
2023-07-30T13:00:27.251Z,57.15
2023-07-30T13:01:27.210Z,57.88
2023-07-30T13:02:27.236Z,59.81
2023-07-30T13:03:27.162Z,60.25
2023-07-30T13:04:27.197Z,57.65
2023-07-30T13:05:27.110Z,59.25
2023-07-30T13:06:27.103Z,59.25
2023-07-30T13:07:27.044Z,58.95
2023-07-30T13:08:27.099Z,58.45
2023-07-30T13:09:27.028Z,58.85
2023-07-30T13:10:27.031Z,59.48
2023-07-30T13:11:26.975Z,59.61
2023-07-30T13:12:27.027Z,60.48
2023-07-30T13:13:26.941Z,60.15
2023-07-30T13:14:26.951Z,61.99
2023-07-30T13:15:26.902Z,61.36
2023-07-30T13:16:26.992Z,57.17
2023-07-30T13:17:26.894Z,58.87
2023-07-30T13:18:26.884Z,59.59
2023-07-30T13:19:26.840Z,59.62
2023-07-30T13:20:26.889Z,59.88
2023-07-30T13:21:26.796Z,60.58
2023-07-30T13:22:26.807Z,61.43
2023-07-30T13:23:26.839Z,62.43
2023-07-30T13:24:26.809Z,62.81
2023-07-30T13:25:26.726Z,62.97
2023-07-30T13:26:26.805Z,62.27
2023-07-30T13:27:26.746Z,60.28
2023-07-30T13:28:26.859Z,61.00
2023-07-30T13:29:26.727Z,60.44
2023-07-30T13:30:26.644Z,61.57
2023-07-30T13:31:26.647Z,62.56
2023-07-30T13:32:26.699Z,63.26
2023-07-30T13:33:26.590Z,62.96
2023-07-30T13:34:26.707Z,62.43
2023-07-30T13:35:26.562Z,61.41
2023-07-30T13:36:26.619Z,61.00
2023-07-30T13:37:26.521Z,60.93
2023-07-30T13:38:26.614Z,60.21
2023-07-30T13:39:26.497Z,61.25
2023-07-30T13:40:26.529Z,59.22
2023-07-30T13:41:26.448Z,58.80
2023-07-30T13:42:26.550Z,59.69
2023-07-30T13:43:26.431Z,58.97
2023-07-30T13:44:26.442Z,57.17
2023-07-30T13:45:26.377Z,57.84
2023-07-30T13:46:26.489Z,56.95
2023-07-30T13:47:26.405Z,59.01
2023-07-30T13:48:26.445Z,57.75
2023-07-30T13:49:26.315Z,57.28
2023-07-30T13:50:26.416Z,57.90
2023-07-30T13:51:26.282Z,58.70
2023-07-30T13:52:26.296Z,58.67
2023-07-30T13:53:26.239Z,57.70
2023-07-30T13:54:26.313Z,58.00
2023-07-30T13:55:26.206Z,58.03
2023-07-30T13:56:26.235Z,59.59
2023-07-30T13:57:26.209Z,57.77
2023-07-30T13:58:26.256Z,57.70
2023-07-30T13:59:26.145Z,57.20
2023-07-30T14:00:26.174Z,58.00
2023-07-30T14:01:26.104Z,57.70
2023-07-30T14:02:26.247Z,57.57
2023-07-30T14:03:26.103Z,59.36
2023-07-30T14:04:26.083Z,57.57
2023-07-30T14:05:26.043Z,59.34
2023-07-30T14:06:26.087Z,57.77
2023-07-30T14:07:26.005Z,60.53
2023-07-30T14:08:26.001Z,58.97
2023-07-30T14:09:25.988Z,57.40
2023-07-30T14:10:26.026Z,59.89
2023-07-30T14:11:25.955Z,59.89
2023-07-30T14:12:26.038Z,59.92
2023-07-30T14:13:28.432Z,60.92
2023-07-30T14:14:25.939Z,61.61
2023-07-30T14:15:25.866Z,60.85
2023-07-30T14:16:26.014Z,60.95
2023-07-30T14:17:25.846Z,61.85
2023-07-30T14:18:25.877Z,61.74
2023-07-30T14:19:25.809Z,60.95
2023-07-30T14:20:25.887Z,62.34
2023-07-30T14:21:25.777Z,61.51
2023-07-30T14:22:25.807Z,61.90
2023-07-30T14:23:25.724Z,61.87
2023-07-30T14:24:25.813Z,60.80
2023-07-30T14:25:25.698Z,60.74
2023-07-30T14:26:25.736Z,61.00
2023-07-30T14:27:25.664Z,59.45
2023-07-30T14:28:25.874Z,59.02
2023-07-30T14:29:25.641Z,57.70
2023-07-30T14:30:25.658Z,57.30
2023-07-30T14:31:25.594Z,57.40
2023-07-30T14:32:25.687Z,56.18
2023-07-30T14:33:25.661Z,53.81
2023-07-30T14:34:25.578Z,54.68
2023-07-30T14:35:25.519Z,55.78
2023-07-30T14:36:25.605Z,55.28
2023-07-30T14:37:25.488Z,54.26
2023-07-30T14:38:25.507Z,53.74
2023-07-30T14:39:25.463Z,54.03
2023-07-30T14:40:25.528Z,54.31
2023-07-30T14:41:25.429Z,54.41
2023-07-30T14:42:25.427Z,54.88
2023-07-30T14:43:25.394Z,52.59
2023-07-30T14:44:25.438Z,51.79
2023-07-30T14:45:25.355Z,52.72
2023-07-30T14:46:25.360Z,53.83
2023-07-30T14:47:25.344Z,53.14
2023-07-30T14:48:25.369Z,53.24
2023-07-30T14:49:25.288Z,53.06
2023-07-30T14:50:25.282Z,53.39
2023-07-30T14:51:25.259Z,52.62
2023-07-30T14:52:25.316Z,54.11
2023-07-30T14:53:25.229Z,54.71
2023-07-30T14:54:25.312Z,55.91
2023-07-30T14:55:25.188Z,55.01
2023-07-30T14:56:25.235Z,56.01
2023-07-30T14:57:25.157Z,55.78
2023-07-30T14:58:25.245Z,54.86
2023-07-30T14:59:25.120Z,53.06
2023-07-30T15:00:25.156Z,53.39
2023-07-30T15:01:25.108Z,55.11
2023-07-30T15:02:25.190Z,55.11
2023-07-30T15:03:25.047Z,56.81